Rudyard, Michigan
Current Conditions -  °F | °C
As of 11:15 AM on Tuesday 21 Oct 2014 (Local Time) from KCIU Reporting Station
Few Clouds Few Clouds  
Wind Chill: 32°   Ceiling: Unl
Heat Index: 39°   Visibility: 10mi
Dew Point: 30°   Wind: 12mph
Humidity: 70%   Direction: 350°N
Pressure: 30.21"   Gusts: NA
Location:  46.23°N, 84.6°W
Report Text: KCIU 211515Z AUTO 35010KT 10SM FEW025 04/M01 A3021 RMK AO1
Loading
Personal Weather Stations






























Interactive Weather Map
Tropical Storm Tracking
New forecast layout! Learn more

10-Day Weather Forecast

Advertisements
Track Severe Weather on mobile